This is the latest recevied telemetry packets stored in our database for station/object HS4IOO. If no packets are shown the sender has not sent any telemetry packets the latest 1 day(s).
Telemetry packets is used to share measurements like repeteater parameters, battery voltage, radiation readings (or any other measurements).
| Time | TEMP* | HUM* | BAR* | BAT* | CPU* |
|---|---|---|---|---|---|
| 1788641789 | 30.71 °C | 100 %RH | 1001.8 hPa | 4.1 V | 35 °C |
| 1788641190 | 30.82 °C | 100 %RH | 1001.8 hPa | 4.11 V | 35 °C |
| 1788640591 | 31.07 °C | 100 %RH | 1001.7 hPa | 4.13 V | 36 °C |
| 1788639992 | 30.89 °C | 100 %RH | 1001.7 hPa | 4.17 V | 36 °C |
| 1788638794 | 30.89 °C | 100 %RH | 1001.7 hPa | 4.11 V | 36 °C |
| 1788638195 | 31.22 °C | 100 %RH | 1001.8 hPa | 4.12 V | 36 °C |
| 1788637596 | 31.21 °C | 100 %RH | 1001.8 hPa | 4.18 V | 36 °C |
| 1788636997 | 31.25 °C | 100 %RH | 1001.7 hPa | 4.18 V | 41 °C |
| 1788636485 | 31.2 °C | 100 %RH | 1002 hPa | 4.11 V | 36 °C |
| 1788635886 | 31.6 °C | 100 %RH | 1002 hPa | 4.13 V | 36 °C |
| 1788635287 | 31.38 °C | 100 %RH | 1002.1 hPa | 4.18 V | 36 °C |
| 1788634688 | 31.12 °C | 100 %RH | 1002.2 hPa | 4.1 V | 36 °C |
| 1788634089 | 31.28 °C | 100 %RH | 1002.3 hPa | 4.1 V | 36 °C |
| 1788633490 | 31.18 °C | 100 %RH | 1002.3 hPa | 4.11 V | 36 °C |
| 1788632891 | 31.32 °C | 100 %RH | 1002.4 hPa | 4.12 V | 36 °C |
| 1788632292 | 31.52 °C | 100 %RH | 1002.5 hPa | 4.18 V | 37 °C |
| 1788631692 | 31.61 °C | 100 %RH | 1002.6 hPa | 4.11 V | 36 °C |
| 1788631094 | 31.94 °C | 100 %RH | 1002.8 hPa | 4.18 V | 37 °C |
| 1788630494 | 32.25 °C | 100 %RH | 1002.8 hPa | 4.18 V | 37 °C |
| 1788629895 | 32.68 °C | 100 %RH | 1002.9 hPa | 4.09 V | 38 °C |
| 1788629296 | 32.65 °C | 100 %RH | 1003 hPa | 4.12 V | 37 °C |
| 1788628697 | 32.81 °C | 100 %RH | 1003 hPa | 4.18 V | 39 °C |
| 1788628098 | 32.31 °C | 100 %RH | 1003.3 hPa | 4.17 V | 37 °C |
| 1788627499 | 32.27 °C | 100 %RH | 1003.5 hPa | 4.1 V | 37 °C |
| 1788626900 | 32.22 °C | 100 %RH | 1003.6 hPa | 4.1 V | 37 °C |
*Used Equation Coefficients:
TEMP: 0, 0.01, 0
HUM: 0, 0.1, 0
BAR: 0, 0.1, 800
BAT: 0, 0.01, 0
CPU: 0, 0.01, 0
- The parameter names for the analog channels will be Value1, Value2, Value3 (up to Value5) if station has not sent a PARAM-packet that specifies the parameter names for each analog channel.
- Each analog value is a decimal number between 000 and 255 (according to APRS specifications). The receiver use the telemetry equation coefficientsto to restore the original sensor values. If no EQNS-packet with equation coefficients is sent we will show the values as is (this corresponds to the equation coefficients a=0, b=1 and c=0).
The sent equation coefficients is used in the equation: a * value2 + b * value + c. - The units for the analog values will not be shown if station has not sent a UNIT-packet specifying what unit's to use.
- The parameter names for the digital bits will be Bit1, Bit2, Bit3 (up to Bit8) if station has not sent a PARAM-packet that specifies the parameter names for each digital bit.
- All bit labels will be named "On" if station has not sent a UNIT-packet that specifies the label of each bit.
- A bit is considered to be On when the bit is 1 if station has not sent a BITS-packet that specifies another "Bit sense" (a BITS-packet specify the state of the bits that match the BIT labels)